Time,TemperatureF,DewpointF,PressureIn,WindDirection,WindDirectionDegrees,WindSpeedMPH,WindSpeedGustMPH,Humidity,HourlyPrecipIn,Conditions,Clouds,dailyrainin,SoftwareType,DateUTC
2013-08-05 00:12:00,74.6,70.0,30.01,NNE,26,1.0,4.0,84,0.00,,,0.00,weatherlink.com 1.10,2013-08-05 04:12:00,
2013-08-05 00:27:00,74.5,69.0,30.01,NNE,26,2.0,5.0,83,0.00,,,0.00,weatherlink.com 1.10,2013-08-05 04:27:00,
2013-08-05 00:42:00,74.5,68.0,30.02,NNE,26,4.0,5.0,81,0.00,,,0.00,weatherlink.com 1.10,2013-08-05 04:42:00,
2013-08-05 00:57:00,74.2,68.0,30.02,NNE,26,3.0,5.0,82,0.00,,,0.00,weatherlink.com 1.10,2013-08-05 04:57:00,
2013-08-05 01:12:00,74.1,68.0,30.02,NNE,26,3.0,5.0,82,0.00,,,0.00,weatherlink.com 1.10,2013-08-05 05:12:00,
2013-08-05 01:27:00,73.9,68.0,30.01,NNE,26,3.0,4.0,82,0.00,,,0.00,weatherlink.com 1.10,2013-08-05 05:27:00,
2013-08-05 01:42:00,72.3,67.0,30.01,NNE,26,2.0,3.0,84,0.00,,,0.00,weatherlink.com 1.10,2013-08-05 05:42:00,
2013-08-05 01:57:00,72.2,68.0,30.01,NNE,26,2.0,5.0,85,0.00,,,0.00,weatherlink.com 1.10,2013-08-05 05:57:00,
2013-08-05 02:12:00,73.2,68.0,30.02,NNE,26,0.0,4.0,84,0.00,,,0.00,weatherlink.com 1.10,2013-08-05 06:12:00,
2013-08-05 02:27:00,73.1,68.0,30.01,NNE,26,2.0,5.0,84,0.00,,,0.00,weatherlink.com 1.10,2013-08-05 06:27:00,
2013-08-05 02:42:00,72.7,68.0,30.01,NNE,26,3.0,3.0,84,0.00,,,0.00,weatherlink.com 1.10,2013-08-05 06:42:00,
2013-08-05 02:57:00,72.3,68.0,30.01,NNE,26,3.0,4.0,85,0.00,,,0.00,weatherlink.com 1.10,2013-08-05 06:57:00,
2013-08-05 03:27:00,73.0,67.0,30.00,NNE,26,3.0,5.0,81,0.00,,,0.00,weatherlink.com 1.10,2013-08-05 07:27:00,
2013-08-05 03:42:00,73.2,67.0,30.00,NNE,26,0.0,5.0,80,0.00,,,0.00,weatherlink.com 1.10,2013-08-05 07:42:00,
2013-08-05 03:57:00,71.7,66.0,30.00,NNE,26,0.0,3.0,83,0.00,,,0.00,weatherlink.com 1.10,2013-08-05 07:57:00,
2013-08-05 04:13:00,72.1,66.0,30.00,NNE,26,0.0,4.0,82,0.00,,,0.00,weatherlink.com 1.10,2013-08-05 08:13:00,
2013-08-05 04:27:00,72.6,68.0,30.00,NNE,26,0.0,4.0,84,0.00,,,0.00,weatherlink.com 1.10,2013-08-05 08:27:00,
2013-08-05 04:43:00,71.9,67.0,29.99,NNE,26,3.0,3.0,84,0.00,,,0.00,weatherlink.com 1.10,2013-08-05 08:43:00,
2013-08-05 04:58:00,71.9,67.0,30.00,NNE,26,2.0,4.0,83,0.00,,,0.00,weatherlink.com 1.10,2013-08-05 08:58:00,
2013-08-05 05:28:00,69.9,65.0,30.01,NNE,26,0.0,2.0,85,0.00,,,0.00,weatherlink.com 1.10,2013-08-05 09:28:00,
2013-08-05 05:43:00,70.9,66.0,30.01,NNE,26,3.0,5.0,85,0.00,,,0.00,weatherlink.com 1.10,2013-08-05 09:43:00,
2013-08-05 05:58:00,72.0,66.0,30.01,NNE,26,2.0,5.0,81,0.00,,,0.00,weatherlink.com 1.10,2013-08-05 09:58:00,
2013-08-05 06:12:00,71.5,66.0,30.02,NNE,26,0.0,4.0,82,0.00,,,0.00,weatherlink.com 1.10,2013-08-05 10:12:00,
2013-08-05 06:28:00,71.2,66.0,30.02,NNE,26,0.0,2.0,82,0.00,,,0.00,weatherlink.com 1.10,2013-08-05 10:28:00,
2013-08-05 06:43:00,70.0,65.0,30.03,NNE,26,2.0,4.0,83,0.00,,,0.00,weatherlink.com 1.10,2013-08-05 10:43:00,
2013-08-05 06:58:00,70.3,65.0,30.04,NNE,26,0.0,3.0,83,0.00,,,0.00,weatherlink.com 1.10,2013-08-05 10:58:00,
2013-08-05 07:13:00,69.7,65.0,30.04,NNE,26,0.0,0.0,86,0.00,,,0.00,weatherlink.com 1.10,2013-08-05 11:13:00,
2013-08-05 07:28:00,69.5,66.0,30.05,NNE,26,0.0,0.0,87,0.00,,,0.00,weatherlink.com 1.10,2013-08-05 11:28:00,
2013-08-05 07:42:00,70.0,66.0,30.05,NNE,26,0.0,3.0,87,0.00,,,0.00,weatherlink.com 1.10,2013-08-05 11:42:00,
2013-08-05 07:58:00,71.3,66.0,30.05,NNE,26,3.0,4.0,84,0.00,,,0.00,weatherlink.com 1.10,2013-08-05 11:58:00,
2013-08-05 08:13:00,72.3,67.0,30.06,NNE,26,4.0,6.0,82,0.00,,,0.00,weatherlink.com 1.10,2013-08-05 12:13:00,
2013-08-05 08:28:00,73.0,67.0,30.06,North,5,4.0,7.0,82,0.00,,,0.00,weatherlink.com 1.10,2013-08-05 12:28:00,
2013-08-05 08:42:00,73.5,67.0,30.05,NNE,20,5.0,6.0,81,0.00,,,0.00,weatherlink.com 1.10,2013-08-05 12:42:00,
2013-08-05 09:28:00,76.7,67.0,30.07,NNE,29,2.0,8.0,73,0.00,,,0.00,weatherlink.com 1.10,2013-08-05 13:28:00,
2013-08-05 09:43:00,77.6,67.0,30.07,NNE,28,6.0,9.0,69,0.00,,,0.00,weatherlink.com 1.10,2013-08-05 13:43:00,
2013-08-05 09:58:00,78.5,68.0,30.07,NNE,27,0.0,8.0,70,0.00,,,0.00,weatherlink.com 1.10,2013-08-05 13:58:00,
2013-08-05 10:13:00,79.5,66.0,30.07,ENE,70,4.0,9.0,64,0.00,,,0.00,weatherlink.com 1.10,2013-08-05 14:13:00,
2013-08-05 10:43:00,80.5,68.0,30.07,ENE,73,0.0,7.0,66,0.00,,,0.00,weatherlink.com 1.10,2013-08-05 14:43:00,
2013-08-05 10:58:00,81.5,67.0,30.07,ESE,103,1.0,8.0,62,0.00,,,0.00,weatherlink.com 1.10,2013-08-05 14:58:00,
2013-08-05 11:13:00,81.4,67.0,30.08,East,84,0.0,7.0,61,0.00,,,0.00,weatherlink.com 1.10,2013-08-05 15:13:00,
2013-08-05 11:28:00,82.2,66.0,30.08,East,88,0.0,8.0,59,0.00,,,0.00,weatherlink.com 1.10,2013-08-05 15:28:00,
2013-08-05 11:43:00,84.1,69.0,30.08,SE,132,0.0,9.0,60,0.00,,,0.00,weatherlink.com 1.10,2013-08-05 15:43:00,
2013-08-05 11:58:00,85.0,66.0,30.08,SE,138,1.0,9.0,54,0.00,,,0.00,weatherlink.com 1.10,2013-08-05 15:58:00,
2013-08-05 12:13:00,84.9,68.0,30.08,SE,129,4.0,8.0,57,0.00,,,0.00,weatherlink.com 1.10,2013-08-05 16:13:00,
2013-08-05 12:58:00,85.5,68.0,30.07,SE,141,2.0,9.0,57,0.00,,,0.00,weatherlink.com 1.10,2013-08-05 16:58:00,
2013-08-05 13:13:00,84.7,69.0,30.07,SE,134,5.0,10.0,59,0.00,,,0.00,weatherlink.com 1.10,2013-08-05 17:13:00,
2013-08-05 13:28:00,84.4,68.0,30.07,SSE,160,4.0,10.0,58,0.00,,,0.00,weatherlink.com 1.10,2013-08-05 17:28:00,
2013-08-05 13:59:00,84.1,67.0,30.05,ESE,116,8.0,10.0,56,0.00,,,0.00,weatherlink.com 1.10,2013-08-05 17:59:00,
2013-08-05 14:13:00,84.5,66.0,30.05,SE,128,6.0,11.0,54,0.00,,,0.00,weatherlink.com 1.10,2013-08-05 18:13:00,
2013-08-05 14:28:00,83.8,67.0,30.05,SE,142,6.0,8.0,58,0.00,,,0.00,weatherlink.com 1.10,2013-08-05 18:28:00,
2013-08-05 14:44:00,84.5,65.0,30.05,SSE,155,3.0,10.0,53,0.00,,,0.00,weatherlink.com 1.10,2013-08-05 18:44:00,
2013-08-05 14:59:00,84.1,67.0,30.04,SE,138,6.0,10.0,56,0.00,,,0.00,weatherlink.com 1.10,2013-08-05 18:59:00,
2013-08-05 15:29:00,84.7,67.0,30.04,SE,132,2.0,9.0,55,0.00,,,0.00,weatherlink.com 1.10,2013-08-05 19:29:00,
2013-08-05 15:44:00,84.1,66.0,30.04,SSE,160,7.0,10.0,54,0.00,,,0.00,weatherlink.com 1.10,2013-08-05 19:44:00,
2013-08-05 15:59:00,83.9,65.0,30.03,SE,144,6.0,10.0,54,0.00,,,0.00,weatherlink.com 1.10,2013-08-05 19:59:00,
2013-08-05 16:14:00,83.6,66.0,30.02,South,180,5.0,9.0,55,0.00,,,0.00,weatherlink.com 1.10,2013-08-05 20:14:00,
2013-08-05 16:29:00,82.3,65.0,30.03,SE,137,7.0,11.0,57,0.00,,,0.00,weatherlink.com 1.10,2013-08-05 20:29:00,
2013-08-05 16:44:00,82.3,65.0,30.03,SSE,151,1.0,9.0,57,0.00,,,0.00,weatherlink.com 1.10,2013-08-05 20:44:00,
2013-08-05 17:14:00,81.4,65.0,30.02,SE,130,5.0,9.0,58,0.00,,,0.00,weatherlink.com 1.10,2013-08-05 21:14:00,
2013-08-05 17:29:00,80.7,66.0,30.02,SE,142,7.0,10.0,61,0.00,,,0.00,weatherlink.com 1.10,2013-08-05 21:29:00,
2013-08-05 17:44:00,80.3,66.0,30.02,SSE,157,1.0,7.0,61,0.00,,,0.00,weatherlink.com 1.10,2013-08-05 21:44:00,
2013-08-05 18:29:00,79.4,65.0,30.02,SE,146,5.0,6.0,62,0.00,,,0.00,weatherlink.com 1.10,2013-08-05 22:29:00,
2013-08-05 18:44:00,79.2,65.0,30.02,SE,133,0.0,8.0,63,0.00,,,0.00,weatherlink.com 1.10,2013-08-05 22:44:00,
2013-08-05 18:59:00,78.8,66.0,30.02,SSE,148,2.0,6.0,65,0.00,,,0.00,weatherlink.com 1.10,2013-08-05 22:59:00,
2013-08-05 19:14:00,78.5,67.0,30.02,ESE,103,2.0,6.0,68,0.00,,,0.00,weatherlink.com 1.10,2013-08-05 23:14:00,
2013-08-05 19:29:00,78.3,66.0,30.02,SE,125,4.0,9.0,67,0.00,,,0.00,weatherlink.com 1.10,2013-08-05 23:29:00,
2013-08-05 19:44:00,78.1,66.0,30.02,East,99,3.0,6.0,67,0.00,,,0.00,weatherlink.com 1.10,2013-08-05 23:44:00,
2013-08-05 19:59:00,77.9,66.0,30.02,SE,135,4.0,7.0,67,0.00,,,0.00,weatherlink.com 1.10,2013-08-05 23:59:00,
2013-08-05 20:14:00,77.9,67.0,30.04,SE,134,6.0,9.0,68,0.00,,,0.00,weatherlink.com 1.10,2013-08-06 00:14:00,
2013-08-05 20:29:00,77.6,66.0,30.03,SSE,157,3.0,5.0,67,0.00,,,0.00,weatherlink.com 1.10,2013-08-06 00:29:00,
2013-08-05 20:59:00,77.7,65.0,30.04,SSE,149,3.0,8.0,65,0.00,,,0.00,weatherlink.com 1.10,2013-08-06 00:59:00,
2013-08-05 21:14:00,77.6,65.0,30.05,SE,144,8.0,8.0,65,0.00,,,0.00,weatherlink.com 1.10,2013-08-06 01:14:00,
2013-08-05 21:29:00,77.5,65.0,30.05,East,96,3.0,7.0,66,0.00,,,0.00,weatherlink.com 1.10,2013-08-06 01:29:00,
2013-08-05 21:44:00,77.4,65.0,30.06,SE,136,3.0,8.0,66,0.00,,,0.00,weatherlink.com 1.10,2013-08-06 01:44:00,
2013-08-05 21:59:00,77.5,65.0,30.06,SSE,150,1.0,7.0,66,0.00,,,0.00,weatherlink.com 1.10,2013-08-06 01:59:00,
2013-08-05 22:14:00,77.2,65.0,30.06,SE,134,6.0,7.0,65,0.00,,,0.00,weatherlink.com 1.10,2013-08-06 02:14:00,
2013-08-05 22:29:00,77.2,65.0,30.05,SSE,154,0.0,5.0,65,0.00,,,0.00,weatherlink.com 1.10,2013-08-06 02:29:00,
2013-08-05 22:44:00,77.3,65.0,30.05,SSE,157,0.0,7.0,65,0.00,,,0.00,weatherlink.com 1.10,2013-08-06 02:44:00,
2013-08-05 22:59:00,77.4,63.0,30.05,SSE,162,5.0,10.0,62,0.00,,,0.00,weatherlink.com 1.10,2013-08-06 02:59:00,
2013-08-05 23:14:00,77.6,63.0,30.05,SSE,159,4.0,10.0,60,0.00,,,0.00,weatherlink.com 1.10,2013-08-06 03:14:00,
2013-08-05 23:29:00,77.5,61.0,30.05,South,169,2.0,8.0,58,0.00,,,0.00,weatherlink.com 1.10,2013-08-06 03:29:00,
2013-08-05 23:44:00,77.8,63.0,30.05,SSE,153,2.0,9.0,60,0.00,,,0.00,weatherlink.com 1.10,2013-08-06 03:44:00,
2013-08-05 23:59:00,77.7,63.0,30.05,SSE,152,4.0,10.0,60,0.00,,,0.00,weatherlink.com 1.10,2013-08-06 03:59:00,